createdAt,value
2023-03-17T00:00:53.326Z,100560.00
2023-03-17T00:03:43.174Z,100556.66
2023-03-17T00:06:33.829Z,100559.13
2023-03-17T00:09:23.009Z,100562.81
2023-03-17T00:12:12.955Z,100560.97
2023-03-17T00:15:02.950Z,100550.50
2023-03-17T00:17:52.638Z,100541.09
2023-03-17T00:20:41.313Z,100539.41
2023-03-17T00:23:30.016Z,100525.44
2023-03-17T00:26:18.800Z,100526.84
2023-03-17T00:29:08.441Z,100528.91
2023-03-17T00:31:59.018Z,100508.19
2023-03-17T00:34:47.945Z,100510.00
2023-03-17T00:37:36.701Z,100501.38
2023-03-17T00:40:29.468Z,100502.44
2023-03-17T00:43:18.735Z,100505.38
2023-03-17T00:46:13.157Z,100498.38
2023-03-17T00:49:03.404Z,100495.06
2023-03-17T00:51:52.682Z,100497.53
2023-03-17T00:54:41.354Z,100485.19
2023-03-17T00:57:29.986Z,100482.31
2023-03-17T01:00:24.562Z,100477.94
2023-03-17T01:03:14.599Z,100476.28
2023-03-17T01:06:06.548Z,100477.56
2023-03-17T01:08:56.921Z,100468.75
2023-03-17T01:11:46.122Z,100471.84
2023-03-17T01:14:37.821Z,100458.00
2023-03-17T01:17:26.732Z,100459.81
2023-03-17T01:20:21.639Z,100454.94
2023-03-17T01:23:12.396Z,100448.41
2023-03-17T01:26:06.650Z,100447.31
2023-03-17T01:28:55.300Z,100453.09
2023-03-17T01:31:44.257Z,100451.25
2023-03-17T01:34:33.793Z,100446.94
2023-03-17T01:37:22.706Z,100436.66
2023-03-17T01:40:18.380Z,100431.31
2023-03-17T01:43:21.483Z,100427.22
2023-03-17T01:46:21.914Z,100420.50
2023-03-17T01:49:16.075Z,100414.19
2023-03-17T01:52:07.591Z,100410.63
2023-03-17T01:54:59.102Z,100402.00
2023-03-17T01:57:53.362Z,100402.63
2023-03-17T02:00:42.101Z,100403.06
2023-03-17T02:03:30.858Z,100408.59
2023-03-17T02:06:20.141Z,100396.84
2023-03-17T02:09:10.792Z,100400.19
2023-03-17T02:12:00.784Z,100395.66
2023-03-17T02:14:53.592Z,100395.19
2023-03-17T02:17:42.443Z,100395.47
2023-03-17T02:21:13.862Z,100398.13
2023-03-17T02:24:07.609Z,100377.97
2023-03-17T02:26:57.639Z,100387.50
2023-03-17T02:29:47.268Z,100387.44
2023-03-17T02:32:37.461Z,100387.50
2023-03-17T02:35:27.157Z,100382.16
2023-03-17T02:38:15.842Z,100381.72
2023-03-17T02:41:06.429Z,100383.75
2023-03-17T02:43:54.999Z,100389.88
2023-03-17T02:46:43.624Z,100397.50
2023-03-17T02:49:32.701Z,100389.50
2023-03-17T02:52:21.319Z,100382.91
2023-03-17T02:55:11.380Z,100385.00
2023-03-17T02:58:03.054Z,100387.88
2023-03-17T03:00:51.972Z,100379.16
2023-03-17T03:03:40.776Z,100380.84
2023-03-17T03:06:29.383Z,100375.50
2023-03-17T03:09:18.839Z,100374.66
2023-03-17T03:12:10.058Z,100362.78
2023-03-17T03:15:00.918Z,100361.50
2023-03-17T03:17:49.577Z,100368.47
2023-03-17T03:20:38.401Z,100365.84
2023-03-17T03:23:27.850Z,100370.16
2023-03-17T03:26:16.674Z,100368.53
2023-03-17T03:29:05.851Z,100371.19
2023-03-17T03:31:56.028Z,100374.25
2023-03-17T03:34:44.624Z,100380.63
2023-03-17T03:37:34.134Z,100383.88
2023-03-17T03:40:22.815Z,100391.50
2023-03-17T03:43:22.291Z,100389.66
2023-03-17T03:46:12.502Z,100377.47
2023-03-17T03:49:02.514Z,100376.31
2023-03-17T03:51:53.724Z,100375.69
2023-03-17T03:54:42.334Z,100372.00
2023-03-17T03:57:30.973Z,100376.69
2023-03-17T04:00:20.423Z,100368.13
2023-03-17T04:03:09.210Z,100370.56
2023-03-17T04:05:59.243Z,100367.69
2023-03-17T04:08:48.319Z,100366.03
2023-03-17T04:11:38.187Z,100377.50
2023-03-17T04:14:26.873Z,100361.88
2023-03-17T04:17:16.004Z,100362.13
2023-03-17T04:20:05.180Z,100357.00
2023-03-17T04:22:55.232Z,100358.25
2023-03-17T04:25:43.847Z,100366.88
2023-03-17T04:28:32.564Z,100369.16
2023-03-17T04:31:21.187Z,100362.34
2023-03-17T04:34:14.473Z,100359.44
2023-03-17T04:37:03.067Z,100372.16
2023-03-17T04:39:53.337Z,100366.88
2023-03-17T04:42:42.488Z,100367.09
2023-03-17T04:45:31.161Z,100354.53
2023-03-17T04:48:19.822Z,100351.03
2023-03-17T04:51:11.582Z,100334.78
2023-03-17T04:54:01.711Z,100346.28
2023-03-17T04:56:52.132Z,100352.84
2023-03-17T04:59:40.842Z,100341.41
2023-03-17T05:02:30.057Z,100338.97
2023-03-17T05:05:18.861Z,100337.78
2023-03-17T05:08:07.909Z,100333.66
2023-03-17T05:10:57.374Z,100324.25
2023-03-17T05:13:48.745Z,100320.16
2023-03-17T05:16:37.573Z,100316.03
2023-03-17T05:19:26.865Z,100320.16
2023-03-17T05:22:19.731Z,100319.16
2023-03-17T05:25:11.516Z,100329.22
2023-03-17T05:28:01.085Z,100325.94
2023-03-17T05:30:51.996Z,100320.16
2023-03-17T05:33:40.694Z,100332.09
2023-03-17T05:36:29.405Z,100332.09
2023-03-17T05:39:18.629Z,100328.88
2023-03-17T05:42:09.967Z,100329.91
2023-03-17T05:44:58.613Z,100340.41
2023-03-17T05:47:48.908Z,100334.06
2023-03-17T05:50:37.644Z,100335.38
2023-03-17T05:53:26.626Z,100326.75
2023-03-17T05:56:15.331Z,100331.66
2023-03-17T05:59:04.765Z,100336.84
2023-03-17T06:01:54.328Z,100341.75
2023-03-17T06:04:44.539Z,100346.03
2023-03-17T06:07:44.551Z,100352.75
2023-03-17T06:10:38.949Z,100352.91
2023-03-17T06:13:27.790Z,100352.09
2023-03-17T06:16:18.804Z,100351.44
2023-03-17T06:19:07.418Z,100343.72
2023-03-17T06:21:59.759Z,100340.25
2023-03-17T06:24:48.669Z,100340.25
2023-03-17T06:27:37.446Z,100343.94
2023-03-17T06:30:27.102Z,100348.91
2023-03-17T06:33:17.942Z,100357.75
2023-03-17T06:36:08.153Z,100359.59
2023-03-17T06:38:58.184Z,100357.34
2023-03-17T06:41:47.181Z,100368.84
2023-03-17T06:44:36.404Z,100365.91
2023-03-17T06:47:26.087Z,100356.22
2023-03-17T06:50:14.814Z,100370.16
2023-03-17T06:53:05.417Z,100377.25
2023-03-17T06:55:56.260Z,100378.41
2023-03-17T06:58:45.580Z,100387.66
2023-03-17T07:01:34.337Z,100390.75
2023-03-17T07:04:23.650Z,100394.44
2023-03-17T07:07:12.458Z,100383.31
2023-03-17T07:10:01.138Z,100382.13
2023-03-17T07:12:52.131Z,100375.13
2023-03-17T07:15:40.929Z,100366.13
2023-03-17T07:18:32.452Z,100357.69
2023-03-17T07:21:21.249Z,100353.81
2023-03-17T07:24:12.225Z,100375.41
2023-03-17T07:27:00.926Z,100367.41
2023-03-17T07:29:51.278Z,100362.91
2023-03-17T07:32:43.809Z,100345.72
2023-03-17T07:35:33.966Z,100340.31
2023-03-17T07:38:23.301Z,100338.31
2023-03-17T07:41:11.934Z,100336.00
2023-03-17T07:44:01.814Z,100328.66
2023-03-17T07:46:52.804Z,100327.63
2023-03-17T07:49:42.656Z,100330.94
2023-03-17T07:52:31.539Z,100333.53
2023-03-17T07:55:20.284Z,100312.44
2023-03-17T07:58:09.203Z,100306.50
2023-03-17T08:00:58.372Z,100298.41
2023-03-17T08:03:48.627Z,100314.44
2023-03-17T08:06:37.856Z,100327.97
2023-03-17T08:09:27.561Z,100318.34
2023-03-17T08:12:16.920Z,100312.38
2023-03-17T08:15:06.731Z,100309.88
2023-03-17T08:17:55.395Z,100304.94
2023-03-17T08:20:46.077Z,100306.56
2023-03-17T08:23:34.959Z,100310.09
2023-03-17T08:26:24.699Z,100304.78
2023-03-17T08:29:15.518Z,100293.13
2023-03-17T08:32:04.481Z,100291.91
2023-03-17T08:34:55.355Z,100295.19
2023-03-17T08:37:45.598Z,100294.78
2023-03-17T08:40:34.555Z,100286.59
2023-03-17T08:43:23.987Z,100287.66
2023-03-17T08:46:17.782Z,100282.72
2023-03-17T08:49:06.640Z,100281.72
2023-03-17T08:51:56.129Z,100293.63
2023-03-17T08:54:47.307Z,100294.06
2023-03-17T08:57:35.926Z,100278.66
2023-03-17T09:00:26.732Z,100281.75
2023-03-17T09:03:15.520Z,100276.81
2023-03-17T09:06:08.835Z,100272.28
2023-03-17T09:08:58.436Z,100279.72
2023-03-17T09:11:48.555Z,100278.88
2023-03-17T09:14:43.914Z,100276.41
2023-03-17T09:17:33.342Z,100264.47
2023-03-17T09:20:22.491Z,100262.44
2023-03-17T09:23:12.168Z,100278.03
2023-03-17T09:26:01.243Z,100273.72
2023-03-17T09:28:51.499Z,100277.44
2023-03-17T09:31:41.521Z,100279.06
2023-03-17T09:34:33.362Z,100275.56
2023-03-17T09:37:22.646Z,100270.22
2023-03-17T09:40:15.860Z,100263.22
2023-03-17T09:43:12.037Z,100262.84
2023-03-17T09:46:10.609Z,100251.75
2023-03-17T09:49:01.541Z,100260.56
2023-03-17T09:51:51.661Z,100267.16
2023-03-17T09:54:40.820Z,100269.41
2023-03-17T09:57:33.577Z,100273.91
2023-03-17T10:00:26.757Z,100266.97
2023-03-17T10:03:17.593Z,100263.69
2023-03-17T10:06:23.113Z,100264.09
2023-03-17T10:09:25.431Z,100265.28
2023-03-17T10:12:22.672Z,100256.25
2023-03-17T10:15:18.336Z,100259.19
2023-03-17T10:18:13.549Z,100254.81
2023-03-17T10:21:06.260Z,100253.59
2023-03-17T10:23:56.282Z,100249.28
2023-03-17T10:26:48.189Z,100247.19
2023-03-17T10:29:37.213Z,100243.31
2023-03-17T10:32:26.029Z,100239.44
2023-03-17T10:35:16.979Z,100241.50
2023-03-17T10:38:17.020Z,100241.50
2023-03-17T10:41:09.904Z,100242.09
2023-03-17T10:43:59.519Z,100239.44
2023-03-17T10:46:55.500Z,100237.78
2023-03-17T10:49:46.205Z,100241.88
2023-03-17T10:52:40.955Z,100245.38
2023-03-17T10:55:34.477Z,100246.44
2023-03-17T10:58:26.778Z,100235.13
2023-03-17T11:01:20.199Z,100232.44
2023-03-17T11:04:26.515Z,100223.41
2023-03-17T11:07:19.389Z,100236.53
2023-03-17T11:10:19.431Z,100237.34
2023-03-17T11:13:10.532Z,100221.75
2023-03-17T11:16:10.667Z,100212.69
2023-03-17T11:19:02.157Z,100211.69
2023-03-17T11:21:57.734Z,100213.94
2023-03-17T11:24:53.751Z,100207.72
2023-03-17T11:27:47.807Z,100199.94
2023-03-17T11:30:38.971Z,100205.28
2023-03-17T11:33:36.610Z,100205.47
2023-03-17T11:36:38.110Z,100206.09
2023-03-17T11:39:28.425Z,100193.75
2023-03-17T11:42:19.880Z,100198.50
2023-03-17T11:45:19.381Z,100187.00
2023-03-17T11:48:17.286Z,100185.16
2023-03-17T11:51:09.824Z,100191.09
2023-03-17T11:54:10.097Z,100193.38
2023-03-17T11:57:01.292Z,100192.97
2023-03-17T11:59:54.449Z,100179.81
2023-03-17T12:02:46.408Z,100182.06
2023-03-17T12:05:37.456Z,100183.09
2023-03-17T12:08:33.269Z,100189.69
2023-03-17T12:11:24.948Z,100181.06
2023-03-17T12:14:24.333Z,100175.31
2023-03-17T12:17:18.489Z,100164.59
2023-03-17T12:20:16.454Z,100162.13
2023-03-17T12:23:12.124Z,100151.84
2023-03-17T12:26:05.137Z,100151.84
2023-03-17T12:28:58.521Z,100150.22
2023-03-17T12:31:50.447Z,100156.38
2023-03-17T12:34:46.046Z,100150.59
2023-03-17T12:37:34.778Z,100152.28
2023-03-17T12:40:29.461Z,100145.69
2023-03-17T12:43:38.931Z,100131.91
2023-03-17T12:47:03.410Z,100136.41
2023-03-17T12:50:12.107Z,100134.16
2023-03-17T12:53:15.513Z,100134.78
2023-03-17T12:56:12.544Z,100130.88
2023-03-17T12:59:04.308Z,100136.22
2023-03-17T13:01:58.787Z,100138.91
2023-03-17T13:04:58.108Z,100140.72
2023-03-17T13:07:51.701Z,100130.66
2023-03-17T13:10:42.739Z,100133.56
2023-03-17T13:13:45.683Z,100127.19
2023-03-17T13:16:35.865Z,100128.59
2023-03-17T13:19:29.033Z,100114.44
2023-03-17T13:22:36.151Z,100104.78
2023-03-17T13:25:34.881Z,100102.91
2023-03-17T13:28:28.651Z,100106.19
2023-03-17T13:31:34.673Z,100098.41
2023-03-17T13:34:23.546Z,100095.50
2023-03-17T13:37:22.309Z,100088.53
2023-03-17T13:40:18.387Z,100091.84
2023-03-17T13:43:16.079Z,100081.16
2023-03-17T13:46:36.468Z,100088.94
2023-03-17T13:49:29.610Z,100075.97
2023-03-17T13:52:20.744Z,100085.84
2023-03-17T13:55:38.819Z,100079.44
2023-03-17T13:58:34.417Z,100082.78
2023-03-17T14:01:25.492Z,100089.97
2023-03-17T14:04:25.323Z,100075.59
2023-03-17T14:07:20.668Z,100076.00
2023-03-17T14:10:16.702Z,100079.50
2023-03-17T14:13:14.900Z,100070.78
2023-03-17T14:16:07.475Z,100065.88
2023-03-17T14:18:59.606Z,100068.81
2023-03-17T14:21:50.163Z,100071.69
2023-03-17T14:24:38.809Z,100063.50
2023-03-17T14:27:28.511Z,100064.38
2023-03-17T14:30:20.770Z,100064.31
2023-03-17T14:33:18.721Z,100061.03
2023-03-17T14:36:14.323Z,100068.22
2023-03-17T14:39:04.800Z,100044.59
2023-03-17T14:42:03.747Z,100035.19
2023-03-17T14:45:03.419Z,100031.31
2023-03-17T14:47:52.786Z,100031.91
2023-03-17T14:50:51.014Z,100051.38
2023-03-17T14:53:43.171Z,100043.78
2023-03-17T14:56:36.932Z,100050.34
2023-03-17T14:59:29.276Z,100048.34
2023-03-17T15:02:23.963Z,100045.84
2023-03-17T15:05:26.328Z,100040.13
2023-03-17T15:08:47.162Z,100028.59
2023-03-17T15:11:42.984Z,100040.94
2023-03-17T15:14:33.626Z,100028.66
2023-03-17T15:17:25.061Z,100033.34
2023-03-17T15:20:16.286Z,100007.44
2023-03-17T15:23:06.857Z,100020.59
2023-03-17T15:25:56.948Z,100018.78
2023-03-17T15:28:48.224Z,100022.88
2023-03-17T15:31:36.921Z,100019.56
2023-03-17T15:34:25.816Z,100015.44
2023-03-17T15:37:19.058Z,100027.34
2023-03-17T15:40:09.622Z,100011.97
2023-03-17T15:43:01.028Z,100017.91
2023-03-17T15:45:55.976Z,100015.44
2023-03-17T15:48:44.961Z,100028.00
2023-03-17T15:51:33.598Z,100021.22
2023-03-17T15:54:23.423Z,100015.28
2023-03-17T15:57:15.210Z,100015.88
2023-03-17T16:00:04.357Z,100013.00
2023-03-17T16:03:01.411Z,100009.31
2023-03-17T16:05:50.993Z,100008.69
2023-03-17T16:08:39.945Z,100011.78
2023-03-17T16:11:32.673Z,100006.44
2023-03-17T16:14:21.617Z,100000.69
2023-03-17T16:17:20.653Z,100000.69
2023-03-17T16:20:21.080Z,99994.13
2023-03-17T16:23:16.688Z,99993.31
2023-03-17T16:26:15.985Z,99978.09
2023-03-17T16:29:07.651Z,99974.41
2023-03-17T16:31:56.810Z,99977.06
2023-03-17T16:34:45.705Z,99978.94
2023-03-17T16:37:35.724Z,99987.31
2023-03-17T16:40:26.494Z,99990.44
2023-03-17T16:43:25.639Z,99986.72
2023-03-17T16:46:16.689Z,99984.28
2023-03-17T16:49:06.271Z,99996.78
2023-03-17T16:51:54.855Z,99996.38
2023-03-17T16:54:44.986Z,99993.31
2023-03-17T16:57:34.920Z,99990.00
2023-03-17T17:00:26.039Z,99999.28
2023-03-17T17:03:17.478Z,99993.69
2023-03-17T17:06:07.231Z,100003.16
2023-03-17T17:08:56.203Z,99996.97
2023-03-17T17:11:49.339Z,100003.16
2023-03-17T17:14:38.652Z,100003.16
2023-03-17T17:17:28.195Z,100007.66
2023-03-17T17:20:18.488Z,100008.09
2023-03-17T17:23:08.187Z,100005.22
2023-03-17T17:25:56.920Z,100006.25
2023-03-17T17:28:47.890Z,100003.16
2023-03-17T17:31:36.746Z,99994.06
2023-03-17T17:34:25.502Z,100003.53
2023-03-17T17:37:16.043Z,100005.34
2023-03-17T17:40:05.798Z,100013.81
2023-03-17T17:42:55.487Z,100003.97
2023-03-17T17:45:48.525Z,99994.09
2023-03-17T17:48:37.167Z,100002.31
2023-03-17T17:51:26.573Z,100007.63
2023-03-17T17:54:15.191Z,99997.34
2023-03-17T17:57:04.133Z,100001.84
2023-03-17T17:59:53.437Z,100002.03
2023-03-17T18:02:43.538Z,100009.06
2023-03-17T18:05:32.425Z,99993.28
2023-03-17T18:08:21.333Z,99998.19
2023-03-17T18:11:10.263Z,99995.09
2023-03-17T18:13:59.515Z,99991.34
2023-03-17T18:16:48.279Z,99995.25
2023-03-17T18:19:38.392Z,99994.78
2023-03-17T18:22:38.672Z,99993.53
2023-03-17T18:25:27.768Z,99993.97
2023-03-17T18:28:17.193Z,99995.84
2023-03-17T18:31:10.931Z,99996.22
2023-03-17T18:34:07.134Z,99989.41
2023-03-17T18:36:59.621Z,99992.72
2023-03-17T18:40:06.087Z,99992.34
2023-03-17T18:42:57.976Z,99993.47
2023-03-17T18:45:48.961Z,99989.94
2023-03-17T18:48:37.866Z,99987.72
2023-03-17T18:51:26.550Z,99986.94
2023-03-17T18:54:18.979Z,99991.13
2023-03-17T18:57:08.480Z,99975.56
2023-03-17T18:59:58.554Z,99982.69
2023-03-17T19:02:48.019Z,99984.50
2023-03-17T19:05:38.444Z,99979.13
2023-03-17T19:08:28.065Z,99980.03
2023-03-17T19:11:20.956Z,99980.03
2023-03-17T19:14:11.835Z,99979.16
2023-03-17T19:17:00.625Z,99975.13
2023-03-17T19:19:50.704Z,99983.09
2023-03-17T19:22:42.686Z,99972.47
2023-03-17T19:25:31.608Z,99975.72
2023-03-17T19:28:22.047Z,99971.66
2023-03-17T19:31:10.709Z,99982.69
2023-03-17T19:33:59.442Z,99982.56
2023-03-17T19:36:48.719Z,99979.34
2023-03-17T19:39:37.857Z,99983.06
2023-03-17T19:42:27.520Z,99982.69
2023-03-17T19:45:18.604Z,99987.19
2023-03-17T19:48:07.457Z,99983.06
2023-03-17T19:50:57.320Z,99983.50
2023-03-17T19:53:46.004Z,99979.50
2023-03-17T19:56:34.990Z,99979.47
2023-03-17T19:59:23.888Z,99979.69
2023-03-17T20:02:21.635Z,99981.84
2023-03-17T20:05:11.081Z,99979.34
2023-03-17T20:07:59.812Z,99980.47
2023-03-17T20:10:53.792Z,99990.06
2023-03-17T20:13:42.693Z,99988.91
2023-03-17T20:16:33.600Z,99984.34
2023-03-17T20:19:23.905Z,99984.78
2023-03-17T20:22:12.633Z,99998.72
2023-03-17T20:25:01.419Z,99996.69
2023-03-17T20:27:52.270Z,100000.75
2023-03-17T20:30:43.942Z,99990.22
2023-03-17T20:33:33.301Z,99991.28
2023-03-17T20:36:23.631Z,99988.50
2023-03-17T20:39:17.123Z,99981.06
2023-03-17T20:42:10.196Z,99979.03
2023-03-17T20:44:59.007Z,99986.66
2023-03-17T20:47:48.820Z,99992.16
2023-03-17T20:50:37.888Z,99986.56
2023-03-17T20:53:29.612Z,99980.13
2023-03-17T20:56:20.008Z,99983.56
2023-03-17T20:59:11.136Z,99977.56
2023-03-17T21:01:59.738Z,99992.13
2023-03-17T21:04:49.042Z,99978.16
2023-03-17T21:07:37.686Z,99981.44
2023-03-17T21:10:27.845Z,99973.66
2023-03-17T21:13:18.258Z,99980.59
2023-03-17T21:16:07.432Z,99978.91
2023-03-17T21:18:56.409Z,99976.16
2023-03-17T21:21:45.705Z,99977.69
2023-03-17T21:27:46.893Z,99982.75
2023-03-17T21:30:36.952Z,99974.09
2023-03-17T21:33:28.458Z,99969.34
2023-03-17T21:36:17.316Z,99983.34
2023-03-17T21:39:07.529Z,99979.63
2023-03-17T21:41:56.914Z,99986.84
2023-03-17T21:44:48.356Z,99980.28
2023-03-17T21:47:37.594Z,99980.25
2023-03-17T21:50:27.027Z,99982.72
2023-03-17T21:53:16.175Z,99983.31
2023-03-17T21:56:05.350Z,99979.00
2023-03-17T21:58:54.980Z,99979.78
2023-03-17T22:01:52.152Z,99976.94
2023-03-17T22:04:41.692Z,99972.97
2023-03-17T22:07:30.963Z,99966.44
2023-03-17T22:10:19.840Z,99980.75
2023-03-17T22:13:08.539Z,99982.03
2023-03-17T22:16:06.587Z,99967.56
2023-03-17T22:18:57.132Z,99985.97
2023-03-17T22:21:45.808Z,99981.03
2023-03-17T22:24:34.476Z,99982.19
2023-03-17T22:27:23.256Z,99983.41
2023-03-17T22:30:14.621Z,99981.78
2023-03-17T22:33:03.293Z,99978.91
2023-03-17T22:35:53.483Z,99969.00
2023-03-17T22:38:42.568Z,99978.06
2023-03-17T22:41:32.143Z,99966.59
2023-03-17T22:44:21.969Z,99971.94
2023-03-17T22:47:11.762Z,99976.94
2023-03-17T22:50:00.604Z,99971.50
2023-03-17T22:52:50.867Z,99971.72
2023-03-17T22:55:39.620Z,99972.38
2023-03-17T22:58:28.717Z,99972.38
2023-03-17T23:01:19.159Z,99967.41
2023-03-17T23:04:09.084Z,99962.44
2023-03-17T23:06:59.188Z,99965.56
2023-03-17T23:09:49.416Z,99959.13
2023-03-17T23:12:39.536Z,99963.50
2023-03-17T23:15:28.650Z,99974.56
2023-03-17T23:18:17.503Z,99972.56
2023-03-17T23:21:07.836Z,99980.22
2023-03-17T23:23:56.628Z,99983.47
2023-03-17T23:26:46.843Z,99975.25
2023-03-17T23:29:35.947Z,99972.59
2023-03-17T23:32:24.912Z,99962.53
2023-03-17T23:35:15.490Z,99980.41
2023-03-17T23:38:05.155Z,99977.59
2023-03-17T23:40:57.690Z,99970.63
2023-03-17T23:43:49.007Z,99982.03
2023-03-17T23:46:37.714Z,99978.38
2023-03-17T23:49:27.648Z,99976.31
2023-03-17T23:52:16.881Z,99979.03
2023-03-17T23:55:06.758Z,99981.69
2023-03-17T23:57:55.749Z,99971.84
